createdAt,value
2023-03-29T00:02:09.928Z,2.40
2023-03-29T00:04:36.936Z,2.20
2023-03-29T00:07:03.922Z,2.20
2023-03-29T00:09:32.504Z,2.45
2023-03-29T00:12:01.061Z,2.10
2023-03-29T00:14:28.482Z,2.40
2023-03-29T00:16:55.490Z,2.20
2023-03-29T00:19:22.349Z,2.10
2023-03-29T00:21:49.249Z,2.20
2023-03-29T00:24:16.092Z,2.50
2023-03-29T00:26:42.972Z,2.50
2023-03-29T00:29:09.954Z,2.50
2023-03-29T00:31:36.840Z,2.22
2023-03-29T00:34:03.722Z,2.30
2023-03-29T00:36:30.589Z,2.42
2023-03-29T00:38:57.447Z,2.50
2023-03-29T00:41:24.358Z,2.30
2023-03-29T00:44:01.968Z,2.10
2023-03-29T00:46:30.381Z,2.10
2023-03-29T00:49:11.471Z,2.10
2023-03-29T00:51:41.069Z,2.13
2023-03-29T00:54:12.060Z,1.83
2023-03-29T00:56:41.538Z,2.40
2023-03-29T00:59:17.202Z,2.70
2023-03-29T01:01:51.611Z,2.10
2023-03-29T01:04:30.892Z,1.80
2023-03-29T01:07:01.465Z,2.10
2023-03-29T01:09:31.099Z,2.28
2023-03-29T01:12:02.752Z,2.30
2023-03-29T01:14:35.925Z,2.05
2023-03-29T01:17:02.801Z,1.98
2023-03-29T01:19:34.500Z,1.90
2023-03-29T01:22:33.327Z,2.00
2023-03-29T01:25:38.948Z,1.92
2023-03-29T01:28:11.667Z,1.90
2023-03-29T01:30:51.171Z,2.30
2023-03-29T01:33:46.918Z,2.00
2023-03-29T01:36:29.141Z,2.10
2023-03-29T01:38:58.096Z,2.20
2023-03-29T01:41:45.452Z,1.85
2023-03-29T01:44:21.294Z,2.10
2023-03-29T01:46:53.438Z,1.80
2023-03-29T01:49:32.056Z,2.10
2023-03-29T01:52:06.700Z,2.10
2023-03-29T01:54:48.397Z,2.00
2023-03-29T01:57:16.732Z,2.20
2023-03-29T01:59:46.225Z,2.00
2023-03-29T02:02:16.257Z,1.90
2023-03-29T02:04:53.045Z,2.00
2023-03-29T02:07:24.935Z,2.10
2023-03-29T02:09:53.402Z,1.85
2023-03-29T02:12:20.914Z,1.90
2023-03-29T02:14:47.752Z,2.07
2023-03-29T02:17:18.972Z,2.30
2023-03-29T02:19:48.876Z,2.10
2023-03-29T02:22:18.541Z,1.70
2023-03-29T02:24:46.764Z,2.13
2023-03-29T02:27:13.823Z,1.80
2023-03-29T02:29:40.647Z,2.30
2023-03-29T02:32:19.601Z,2.03
2023-03-29T02:35:01.472Z,2.10
2023-03-29T02:37:31.515Z,1.90
2023-03-29T02:39:59.646Z,2.10
2023-03-29T02:42:27.938Z,2.20
2023-03-29T02:44:58.920Z,2.10
2023-03-29T02:47:33.156Z,2.00
2023-03-29T02:50:00.569Z,2.10
2023-03-29T02:52:34.320Z,2.20
2023-03-29T02:55:02.844Z,2.00
2023-03-29T02:57:30.067Z,2.30
2023-03-29T02:59:58.683Z,2.42
2023-03-29T03:02:25.883Z,2.17
2023-03-29T03:04:52.826Z,2.37
2023-03-29T03:07:19.841Z,2.20
2023-03-29T03:09:47.135Z,2.30
2023-03-29T03:12:13.978Z,2.63
2023-03-29T03:14:40.812Z,2.50
2023-03-29T03:17:07.668Z,2.30
2023-03-29T03:19:34.525Z,2.00
2023-03-29T03:22:01.399Z,2.53
2023-03-29T03:24:28.241Z,2.40
2023-03-29T03:26:55.075Z,2.30
2023-03-29T03:29:22.016Z,2.30
2023-03-29T03:31:49.888Z,2.60
2023-03-29T03:34:18.313Z,2.40
2023-03-29T03:36:45.405Z,2.50
2023-03-29T03:39:12.240Z,2.30
2023-03-29T03:41:39.373Z,2.35
2023-03-29T03:44:06.476Z,2.60
2023-03-29T03:46:33.384Z,2.08
2023-03-29T03:49:00.297Z,2.40
2023-03-29T03:51:27.183Z,2.40
2023-03-29T03:53:54.024Z,2.45
2023-03-29T03:56:20.905Z,2.28
2023-03-29T03:58:47.809Z,2.40
2023-03-29T04:01:14.625Z,3.35
2023-03-29T04:03:41.661Z,3.10
2023-03-29T04:06:09.129Z,2.35
2023-03-29T04:08:35.940Z,2.53
2023-03-29T04:11:03.024Z,2.50
2023-03-29T04:13:30.123Z,2.00
2023-03-29T04:15:59.435Z,2.30
2023-03-29T04:18:27.950Z,2.30
2023-03-29T04:20:54.859Z,2.80
2023-03-29T04:23:21.736Z,2.60
2023-03-29T04:25:48.580Z,2.50
2023-03-29T04:28:15.517Z,2.50
2023-03-29T04:30:42.392Z,2.20
2023-03-29T04:33:09.337Z,2.40
2023-03-29T04:35:36.375Z,2.70
2023-03-29T04:38:03.277Z,2.70
2023-03-29T04:40:30.218Z,2.53
2023-03-29T04:42:57.067Z,2.50
2023-03-29T04:45:23.930Z,2.45
2023-03-29T04:47:50.855Z,2.70
2023-03-29T04:50:17.792Z,2.50
2023-03-29T04:52:44.674Z,2.50
2023-03-29T04:55:11.841Z,2.58
2023-03-29T04:57:38.849Z,2.60
2023-03-29T05:00:06.420Z,2.30
2023-03-29T05:02:33.312Z,2.53
2023-03-29T05:05:00.179Z,2.40
2023-03-29T05:07:27.053Z,2.50
2023-03-29T05:09:53.914Z,2.60
2023-03-29T05:12:20.723Z,2.40
2023-03-29T05:14:47.562Z,2.60
2023-03-29T05:17:14.392Z,4.30
2023-03-29T05:19:41.373Z,4.82
2023-03-29T05:22:08.330Z,2.90
2023-03-29T05:24:35.209Z,2.55
2023-03-29T05:27:02.061Z,2.55
2023-03-29T05:29:29.082Z,2.70
2023-03-29T05:31:55.989Z,3.00
2023-03-29T05:34:22.859Z,2.60
2023-03-29T05:36:49.719Z,2.90
2023-03-29T05:39:16.567Z,2.60
2023-03-29T05:41:43.468Z,2.70
2023-03-29T05:44:10.344Z,2.90
2023-03-29T05:46:37.204Z,2.67
2023-03-29T05:49:04.381Z,2.70
2023-03-29T05:51:31.254Z,2.58
2023-03-29T05:53:58.163Z,2.58
2023-03-29T05:56:25.044Z,2.55
2023-03-29T05:58:55.172Z,2.80
2023-03-29T06:01:22.352Z,2.75
2023-03-29T06:03:49.489Z,2.70
2023-03-29T06:06:16.741Z,2.53
2023-03-29T06:08:44.683Z,3.45
2023-03-29T06:11:12.952Z,8.00
2023-03-29T06:13:40.335Z,2.92
2023-03-29T06:16:07.764Z,2.80
2023-03-29T06:18:35.248Z,2.85
2023-03-29T06:21:02.565Z,2.80
2023-03-29T06:23:31.442Z,2.38
2023-03-29T06:25:58.444Z,3.07
2023-03-29T06:28:25.313Z,3.10
2023-03-29T06:30:52.538Z,3.97
2023-03-29T06:33:19.532Z,2.80
2023-03-29T06:35:48.309Z,2.40
2023-03-29T06:38:15.454Z,2.80
2023-03-29T06:40:42.400Z,2.90
2023-03-29T06:43:09.332Z,3.10
2023-03-29T06:45:38.316Z,2.60
2023-03-29T06:48:06.006Z,2.70
2023-03-29T06:50:33.219Z,2.70
2023-03-29T06:53:00.314Z,3.17
2023-03-29T06:55:27.168Z,4.47
2023-03-29T06:57:54.859Z,3.80
2023-03-29T07:00:22.175Z,4.20
2023-03-29T07:02:49.077Z,4.80
2023-03-29T07:05:16.091Z,3.30
2023-03-29T07:07:45.619Z,2.50
2023-03-29T07:10:12.475Z,2.90
2023-03-29T07:12:39.312Z,2.40
2023-03-29T07:15:06.599Z,2.80
2023-03-29T07:17:33.507Z,2.83
2023-03-29T07:20:00.376Z,3.10
2023-03-29T07:22:27.212Z,3.20
2023-03-29T07:24:54.069Z,2.85
2023-03-29T07:27:20.971Z,2.90
2023-03-29T07:29:47.835Z,3.33
2023-03-29T07:32:14.746Z,4.45
2023-03-29T07:34:41.619Z,3.75
2023-03-29T07:37:08.434Z,4.05
2023-03-29T07:39:35.262Z,6.70
2023-03-29T07:42:02.129Z,4.47
2023-03-29T07:44:28.975Z,3.40
2023-03-29T07:46:55.892Z,3.40
2023-03-29T07:49:22.832Z,3.20
2023-03-29T07:51:49.655Z,3.20
2023-03-29T07:54:16.682Z,3.40
2023-03-29T07:56:43.606Z,3.30
2023-03-29T07:59:10.478Z,3.15
2023-03-29T08:01:37.294Z,3.67
2023-03-29T08:04:04.263Z,4.25
2023-03-29T08:06:31.225Z,3.67
2023-03-29T08:08:58.430Z,3.67
2023-03-29T08:11:25.304Z,3.40
2023-03-29T08:13:52.176Z,3.50
2023-03-29T08:16:19.365Z,3.50
2023-03-29T08:18:46.234Z,3.75
2023-03-29T08:21:13.065Z,4.20
2023-03-29T08:23:40.090Z,3.83
2023-03-29T08:26:07.152Z,4.10
2023-03-29T08:28:34.078Z,4.00
2023-03-29T08:31:01.600Z,4.00
2023-03-29T08:33:28.616Z,4.07
2023-03-29T08:35:55.504Z,3.70
2023-03-29T08:38:22.365Z,4.00
2023-03-29T08:40:50.161Z,4.00
2023-03-29T08:43:52.692Z,3.90
2023-03-29T08:46:34.393Z,4.57
2023-03-29T08:49:05.478Z,4.25
2023-03-29T08:51:36.572Z,3.77
2023-03-29T08:54:10.341Z,3.75
2023-03-29T08:56:40.447Z,3.85
2023-03-29T08:59:23.427Z,3.40
2023-03-29T09:01:53.592Z,3.30
2023-03-29T09:04:36.267Z,3.22
2023-03-29T09:07:08.477Z,3.53
2023-03-29T09:09:36.020Z,3.35
2023-03-29T09:12:29.646Z,4.85
2023-03-29T09:15:16.104Z,3.93
2023-03-29T09:18:09.812Z,3.38
2023-03-29T09:20:42.500Z,3.30
2023-03-29T09:23:18.263Z,3.22
2023-03-29T09:26:19.031Z,2.97
2023-03-29T09:28:53.575Z,3.10
2023-03-29T09:31:29.912Z,2.80
2023-03-29T09:33:59.920Z,2.78
2023-03-29T09:36:50.427Z,2.42
2023-03-29T09:39:17.336Z,2.75
2023-03-29T09:42:01.410Z,2.90
2023-03-29T09:44:36.828Z,2.80
2023-03-29T09:47:11.557Z,2.85
2023-03-29T09:49:45.770Z,2.90
2023-03-29T09:52:15.544Z,2.95
2023-03-29T09:54:42.800Z,2.70
2023-03-29T09:57:16.358Z,2.80
2023-03-29T09:59:44.433Z,5.50
2023-03-29T10:02:13.401Z,2.90
2023-03-29T10:04:41.568Z,3.00
2023-03-29T10:07:14.925Z,2.80
2023-03-29T10:09:44.916Z,3.10
2023-03-29T10:12:13.561Z,3.03
2023-03-29T10:14:51.500Z,2.75
2023-03-29T10:17:21.726Z,3.10
2023-03-29T10:20:12.920Z,2.90
2023-03-29T10:22:45.444Z,2.80
2023-03-29T10:25:17.211Z,2.60
2023-03-29T10:27:46.284Z,2.80
2023-03-29T10:30:21.107Z,2.70
2023-03-29T10:32:55.490Z,3.20
2023-03-29T10:35:32.900Z,3.30
2023-03-29T10:38:03.456Z,2.97
2023-03-29T10:40:35.349Z,2.80
2023-03-29T10:43:20.837Z,3.15
2023-03-29T10:45:53.238Z,2.90
2023-03-29T10:48:31.097Z,2.70
2023-03-29T10:51:00.768Z,2.55
2023-03-29T10:53:33.964Z,2.90
2023-03-29T10:56:56.188Z,2.90
2023-03-29T10:59:57.284Z,2.67
2023-03-29T11:02:45.308Z,2.47
2023-03-29T11:05:22.183Z,2.58
2023-03-29T11:08:37.015Z,2.65
2023-03-29T11:11:18.305Z,2.70
2023-03-29T11:14:07.853Z,2.60
2023-03-29T11:21:46.542Z,2.80
2023-03-29T11:24:25.688Z,3.50
2023-03-29T11:26:52.489Z,2.97
2023-03-29T11:29:24.218Z,3.00
2023-03-29T11:32:12.735Z,2.60
2023-03-29T11:34:50.610Z,2.90
2023-03-29T11:37:32.696Z,2.90
2023-03-29T11:40:22.811Z,3.30
2023-03-29T11:42:53.656Z,2.90
2023-03-29T11:45:37.990Z,3.20
2023-03-29T11:48:09.359Z,3.00
2023-03-29T11:50:50.833Z,3.10
2023-03-29T11:53:29.084Z,3.13
2023-03-29T11:55:58.475Z,3.28
2023-03-29T11:58:38.358Z,3.10
2023-03-29T12:01:12.730Z,3.20
2023-03-29T12:03:57.116Z,3.20
2023-03-29T12:06:28.347Z,3.20
2023-03-29T12:09:02.396Z,3.30
2023-03-29T12:11:40.607Z,5.60
2023-03-29T12:14:17.009Z,5.53
2023-03-29T12:17:05.828Z,3.80
2023-03-29T12:19:43.549Z,3.63
2023-03-29T12:22:10.787Z,3.67
2023-03-29T12:24:41.782Z,3.70
2023-03-29T12:27:21.936Z,3.33
2023-03-29T12:29:55.515Z,4.10
2023-03-29T12:32:32.345Z,4.35
2023-03-29T12:35:20.752Z,4.05
2023-03-29T12:37:59.396Z,3.97
2023-03-29T12:40:27.932Z,4.03
2023-03-29T12:43:03.351Z,3.60
2023-03-29T12:45:35.018Z,3.80
2023-03-29T12:48:02.111Z,4.10
2023-03-29T12:50:35.539Z,4.10
2023-03-29T12:53:22.637Z,4.40
2023-03-29T12:56:12.086Z,4.40
2023-03-29T12:58:38.889Z,4.13
2023-03-29T13:01:26.680Z,4.10
2023-03-29T13:04:10.704Z,4.30
2023-03-29T13:06:51.131Z,4.63
2023-03-29T13:09:49.882Z,4.32
2023-03-29T13:12:16.703Z,4.90
2023-03-29T13:14:46.464Z,4.40
2023-03-29T13:17:25.381Z,4.20
2023-03-29T13:19:52.203Z,4.25
2023-03-29T13:22:37.597Z,4.30
2023-03-29T13:25:19.588Z,4.60
2023-03-29T13:28:00.855Z,4.60
2023-03-29T13:30:30.481Z,4.20
2023-03-29T13:33:03.240Z,4.40
2023-03-29T13:35:49.193Z,4.90
2023-03-29T13:38:25.426Z,4.60
2023-03-29T13:41:06.423Z,4.20
2023-03-29T13:43:48.029Z,4.20
2023-03-29T13:46:23.815Z,4.28
2023-03-29T13:49:06.598Z,4.30
2023-03-29T13:51:38.907Z,4.50
2023-03-29T13:54:17.727Z,4.50
2023-03-29T13:57:12.416Z,4.00
2023-03-29T14:00:15.923Z,4.50
2023-03-29T14:03:04.254Z,4.38
2023-03-29T14:05:44.452Z,4.05
2023-03-29T14:08:25.685Z,4.40
2023-03-29T14:10:54.195Z,5.05
2023-03-29T14:13:23.470Z,4.50
2023-03-29T14:16:00.911Z,4.50
2023-03-29T14:18:32.134Z,4.60
2023-03-29T14:21:01.230Z,4.47
2023-03-29T14:23:30.286Z,4.57
2023-03-29T14:26:14.252Z,4.22
2023-03-29T14:28:47.067Z,4.60
2023-03-29T14:31:21.722Z,4.83
2023-03-29T14:33:57.267Z,4.70
2023-03-29T14:36:25.463Z,4.72
2023-03-29T14:39:01.709Z,4.47
2023-03-29T14:41:34.345Z,4.43
2023-03-29T14:44:01.677Z,4.50
2023-03-29T14:46:28.887Z,4.70
2023-03-29T14:48:56.607Z,4.55
2023-03-29T14:51:24.470Z,4.35
2023-03-29T14:53:51.653Z,4.40
2023-03-29T14:56:18.720Z,4.32
2023-03-29T14:58:46.981Z,4.00
2023-03-29T15:01:17.782Z,4.20
2023-03-29T15:03:55.078Z,4.68
2023-03-29T15:06:25.297Z,4.30
2023-03-29T15:09:04.386Z,4.80
2023-03-29T15:11:33.014Z,4.30
2023-03-29T15:14:04.873Z,4.28
2023-03-29T15:16:32.425Z,4.10
2023-03-29T15:19:02.218Z,4.40
2023-03-29T15:21:33.113Z,4.00
2023-03-29T15:24:02.042Z,3.40
2023-03-29T15:26:32.698Z,4.15
2023-03-29T15:29:07.329Z,3.70
2023-03-29T15:31:39.599Z,4.70
2023-03-29T15:34:11.926Z,4.00
2023-03-29T15:36:45.024Z,4.05
2023-03-29T15:39:16.548Z,3.90
2023-03-29T15:41:44.971Z,3.65
2023-03-29T15:44:15.387Z,3.70
2023-03-29T15:46:42.215Z,3.90
2023-03-29T15:49:13.198Z,3.80
2023-03-29T15:51:41.170Z,4.10
2023-03-29T15:54:08.332Z,3.60
2023-03-29T15:56:43.729Z,4.05
2023-03-29T15:59:12.117Z,4.00
2023-03-29T16:01:39.468Z,3.90
2023-03-29T16:04:15.249Z,4.13
2023-03-29T16:06:43.485Z,3.72
2023-03-29T16:09:10.707Z,4.20
2023-03-29T16:11:38.823Z,4.50
2023-03-29T16:14:21.834Z,3.65
2023-03-29T16:16:49.271Z,3.70
2023-03-29T16:19:16.383Z,4.10
2023-03-29T16:21:43.218Z,4.47
2023-03-29T16:24:16.033Z,4.00
2023-03-29T16:26:43.431Z,4.20
2023-03-29T16:29:10.343Z,4.00
2023-03-29T16:31:37.399Z,4.10
2023-03-29T16:34:05.531Z,3.90
2023-03-29T16:36:32.368Z,3.80
2023-03-29T16:38:59.610Z,3.60
2023-03-29T16:41:26.461Z,3.40
2023-03-29T16:43:53.356Z,42.20
2023-03-29T16:46:20.301Z,7.90
2023-03-29T16:48:47.200Z,3.67
2023-03-29T16:51:14.104Z,3.50
2023-03-29T16:53:40.964Z,3.58
2023-03-29T16:56:08.032Z,6.38
2023-03-29T16:58:35.097Z,4.88
2023-03-29T17:01:12.651Z,5.28
2023-03-29T17:03:40.654Z,3.50
2023-03-29T17:06:08.778Z,8.80
2023-03-29T17:08:36.170Z,7.05
2023-03-29T17:11:04.197Z,6.82
2023-03-29T17:13:31.140Z,3.50
2023-03-29T17:15:58.036Z,3.70
2023-03-29T17:18:26.770Z,3.20
2023-03-29T17:20:57.617Z,3.43
2023-03-29T17:23:25.774Z,3.30
2023-03-29T17:25:55.003Z,4.70
2023-03-29T17:28:22.770Z,4.00
2023-03-29T17:30:49.678Z,3.20
2023-03-29T17:33:16.969Z,3.65
2023-03-29T17:35:44.709Z,3.60
2023-03-29T17:38:12.191Z,3.70
2023-03-29T17:40:39.097Z,3.50
2023-03-29T17:43:06.188Z,3.35
2023-03-29T17:45:33.228Z,14.43
2023-03-29T17:48:00.148Z,3.20
2023-03-29T17:50:27.115Z,3.58
2023-03-29T17:52:53.968Z,3.30
2023-03-29T17:55:20.804Z,3.60
2023-03-29T17:57:47.739Z,3.38
2023-03-29T18:00:15.868Z,3.40
2023-03-29T18:02:43.823Z,3.30
2023-03-29T18:05:11.181Z,3.80
2023-03-29T18:07:38.442Z,6.43
2023-03-29T18:10:06.123Z,4.00
2023-03-29T18:12:33.006Z,4.10
2023-03-29T18:14:59.842Z,3.60
2023-03-29T18:17:27.066Z,5.85
2023-03-29T18:19:53.949Z,4.82
2023-03-29T18:22:21.463Z,3.83
2023-03-29T18:24:48.357Z,4.38
2023-03-29T18:27:15.216Z,3.40
2023-03-29T18:29:42.078Z,3.10
2023-03-29T18:32:08.980Z,4.10
2023-03-29T18:34:35.835Z,3.60
2023-03-29T18:37:02.718Z,3.50
2023-03-29T18:39:29.685Z,4.00
2023-03-29T18:41:56.519Z,3.15
2023-03-29T18:44:23.405Z,3.50
2023-03-29T18:46:50.246Z,3.92
2023-03-29T18:49:17.096Z,3.75
2023-03-29T18:51:43.936Z,4.00
2023-03-29T18:54:10.756Z,3.40
2023-03-29T18:56:37.655Z,3.40
2023-03-29T18:59:04.526Z,3.30
2023-03-29T19:01:31.513Z,3.40
2023-03-29T19:03:58.380Z,3.60
2023-03-29T19:06:25.262Z,3.50
2023-03-29T19:08:52.162Z,3.95
2023-03-29T19:11:18.988Z,4.35
2023-03-29T19:13:45.845Z,3.85
2023-03-29T19:16:12.774Z,3.70
2023-03-29T19:18:39.660Z,4.05
2023-03-29T19:21:06.542Z,3.97
2023-03-29T19:23:33.613Z,4.20
2023-03-29T19:26:04.692Z,4.10
2023-03-29T19:28:32.687Z,4.00
2023-03-29T19:31:01.393Z,4.40
2023-03-29T19:33:28.659Z,4.50
2023-03-29T19:35:55.834Z,4.50
2023-03-29T19:38:22.778Z,8.35
2023-03-29T19:40:51.584Z,11.38
2023-03-29T19:43:19.219Z,5.80
2023-03-29T19:45:47.858Z,5.40
2023-03-29T19:48:22.480Z,5.75
2023-03-29T19:50:50.424Z,5.40
2023-03-29T19:53:17.476Z,8.70
2023-03-29T19:55:44.418Z,6.40
2023-03-29T19:58:11.301Z,5.97
2023-03-29T20:00:38.238Z,6.20
2023-03-29T20:03:05.656Z,6.00
2023-03-29T20:05:34.324Z,6.05
2023-03-29T20:08:01.173Z,5.50
2023-03-29T20:10:28.032Z,8.63
2023-03-29T20:12:54.870Z,9.43
2023-03-29T20:15:21.739Z,7.47
2023-03-29T20:17:48.606Z,6.50
2023-03-29T20:20:15.710Z,6.67
2023-03-29T20:22:42.633Z,8.60
2023-03-29T20:25:09.767Z,6.70
2023-03-29T20:27:37.027Z,6.10
2023-03-29T20:30:04.452Z,11.10
2023-03-29T20:32:31.291Z,7.55
2023-03-29T20:34:58.158Z,8.30
2023-03-29T20:37:25.209Z,7.87
2023-03-29T20:39:52.898Z,6.60
2023-03-29T20:42:19.849Z,6.40
2023-03-29T20:44:46.703Z,6.60
2023-03-29T20:47:13.818Z,6.18
2023-03-29T20:49:40.883Z,7.10
2023-03-29T20:52:11.301Z,6.95
2023-03-29T20:54:38.544Z,7.10
2023-03-29T20:57:06.005Z,7.13
2023-03-29T20:59:33.063Z,7.00
2023-03-29T21:02:00.088Z,7.32
2023-03-29T21:04:28.295Z,7.18
2023-03-29T21:06:55.166Z,7.78
2023-03-29T21:09:23.522Z,7.50
2023-03-29T21:11:50.997Z,8.50
2023-03-29T21:14:17.902Z,8.00
2023-03-29T21:16:45.102Z,7.68
2023-03-29T21:19:11.920Z,7.65
2023-03-29T21:21:38.984Z,7.80
2023-03-29T21:24:06.057Z,8.02
2023-03-29T21:26:33.228Z,7.60
2023-03-29T21:29:00.635Z,7.40
2023-03-29T21:31:28.171Z,8.00
2023-03-29T21:33:55.022Z,7.90
2023-03-29T21:36:22.836Z,8.27
2023-03-29T21:38:50.416Z,7.85
2023-03-29T21:41:17.946Z,7.90
2023-03-29T21:43:45.114Z,8.43
2023-03-29T21:46:12.063Z,7.50
2023-03-29T21:48:38.930Z,7.55
2023-03-29T21:51:06.458Z,7.70
2023-03-29T21:53:33.967Z,8.20
2023-03-29T21:56:01.096Z,8.10
2023-03-29T21:58:28.126Z,7.50
2023-03-29T22:00:55.962Z,7.20
2023-03-29T22:03:23.048Z,8.18
2023-03-29T22:06:01.125Z,8.00
2023-03-29T22:08:28.403Z,8.00
2023-03-29T22:10:56.735Z,8.40
2023-03-29T22:13:28.669Z,8.30
2023-03-29T22:16:00.878Z,8.80
2023-03-29T22:18:29.325Z,8.10
2023-03-29T22:20:57.005Z,8.65
2023-03-29T22:23:23.904Z,8.80
2023-03-29T22:25:50.791Z,8.98
2023-03-29T22:28:17.670Z,8.55
2023-03-29T22:30:44.727Z,9.10
2023-03-29T22:33:11.639Z,9.38
2023-03-29T22:35:39.081Z,8.77
2023-03-29T22:38:05.933Z,8.80
2023-03-29T22:40:32.904Z,9.65
2023-03-29T22:43:00.151Z,10.00
2023-03-29T22:45:27.130Z,10.10
2023-03-29T22:47:54.026Z,10.10
2023-03-29T22:50:20.981Z,10.10
2023-03-29T22:52:47.853Z,10.30
2023-03-29T22:55:14.945Z,9.60
2023-03-29T22:57:41.829Z,9.60
2023-03-29T23:00:09.491Z,10.10
2023-03-29T23:02:36.999Z,9.38
2023-03-29T23:05:03.918Z,8.77
2023-03-29T23:07:30.782Z,8.80
2023-03-29T23:09:57.733Z,9.25
2023-03-29T23:12:24.668Z,8.20
2023-03-29T23:14:51.471Z,8.90
2023-03-29T23:17:18.336Z,8.15
2023-03-29T23:19:45.220Z,8.30
2023-03-29T23:22:12.232Z,8.13
2023-03-29T23:24:39.143Z,8.00
2023-03-29T23:27:06.289Z,9.00
2023-03-29T23:29:33.123Z,9.70
2023-03-29T23:32:00.119Z,8.77
2023-03-29T23:34:27.006Z,8.90
2023-03-29T23:36:53.884Z,8.32
2023-03-29T23:39:20.751Z,8.65
2023-03-29T23:41:47.607Z,8.80
2023-03-29T23:44:14.565Z,9.07
2023-03-29T23:46:41.589Z,8.75
2023-03-29T23:49:09.053Z,9.30
2023-03-29T23:51:35.973Z,9.20
2023-03-29T23:54:02.874Z,9.35
2023-03-29T23:56:29.780Z,9.60
2023-03-29T23:58:56.834Z,9.85
